createdAt,value
2018-02-19T00:00:24.166Z,14.93
2018-02-19T00:00:58.075Z,21.30
2018-02-19T00:01:32.056Z,15.38
2018-02-19T00:02:05.960Z,14.27
2018-02-19T00:02:39.846Z,14.05
2018-02-19T00:03:13.769Z,15.80
2018-02-19T00:03:47.838Z,16.87
2018-02-19T00:04:21.723Z,14.68
2018-02-19T00:04:55.614Z,16.55
2018-02-19T00:05:29.538Z,18.23
2018-02-19T00:06:03.390Z,18.75
2018-02-19T00:06:37.248Z,18.25
2018-02-19T00:07:11.209Z,16.30
2018-02-19T00:07:45.160Z,14.93
2018-02-19T00:08:19.092Z,16.98
2018-02-19T00:08:53.116Z,15.02
2018-02-19T00:09:27.010Z,13.65
2018-02-19T00:10:00.904Z,19.23
2018-02-19T00:10:34.851Z,15.07
2018-02-19T00:11:08.712Z,22.62
2018-02-19T00:11:42.585Z,15.85
2018-02-19T00:12:16.560Z,14.63
2018-02-19T00:12:50.473Z,14.77
2018-02-19T00:13:24.366Z,17.50
2018-02-19T00:13:58.261Z,15.38
2018-02-19T00:14:32.135Z,15.60
2018-02-19T00:15:06.003Z,16.83
2018-02-19T00:15:39.953Z,17.30
2018-02-19T00:16:13.817Z,18.75
2018-02-19T00:16:47.691Z,15.30
2018-02-19T00:17:21.628Z,19.55
2018-02-19T00:17:55.504Z,17.55
2018-02-19T00:18:29.441Z,15.32
2018-02-19T00:19:03.370Z,15.25
2018-02-19T00:19:37.233Z,11.00
2018-02-19T00:20:11.230Z,12.65
2018-02-19T00:20:45.093Z,15.73
2018-02-19T00:21:19.137Z,15.57
2018-02-19T00:21:53.271Z,15.85
2018-02-19T00:22:27.326Z,15.32
2018-02-19T00:23:01.499Z,12.35
2018-02-19T00:23:35.407Z,18.60
2018-02-19T00:24:09.327Z,15.75
2018-02-19T00:24:43.203Z,14.45
2018-02-19T00:25:17.194Z,17.35
2018-02-19T00:25:51.066Z,17.05
2018-02-19T00:26:24.921Z,11.70
2018-02-19T00:26:58.868Z,15.00
2018-02-19T00:27:32.744Z,13.02
2018-02-19T00:28:06.863Z,16.83
2018-02-19T00:28:41.061Z,12.60
2018-02-19T00:29:14.953Z,13.55
2018-02-19T00:29:48.830Z,19.25
2018-02-19T00:30:22.707Z,15.57
2018-02-19T00:30:56.680Z,18.48
2018-02-19T00:31:30.525Z,15.50
2018-02-19T00:32:04.820Z,15.55
2018-02-19T00:32:38.772Z,16.05
2018-02-19T00:33:12.675Z,16.80
2018-02-19T00:33:46.629Z,12.90
2018-02-19T00:34:20.743Z,13.05
2018-02-19T00:34:54.738Z,17.87
2018-02-19T00:35:28.596Z,13.20
2018-02-19T00:36:02.692Z,17.10
2018-02-19T00:36:36.739Z,16.83
2018-02-19T00:37:10.615Z,10.25
2018-02-19T00:37:44.518Z,14.95
2018-02-19T00:38:18.389Z,13.57
2018-02-19T00:38:52.284Z,17.40
2018-02-19T00:39:26.271Z,15.55
2018-02-19T00:40:00.154Z,16.60
2018-02-19T00:40:34.098Z,15.98
2018-02-19T00:41:08.142Z,14.68
2018-02-19T00:41:42.017Z,20.62
2018-02-19T00:42:15.874Z,11.93
2018-02-19T00:42:49.736Z,15.73
2018-02-19T00:43:23.841Z,18.62
2018-02-19T00:43:57.753Z,18.00
2018-02-19T00:44:31.632Z,14.43
2018-02-19T00:45:05.516Z,14.18
2018-02-19T00:45:39.472Z,13.20
2018-02-19T00:46:13.378Z,14.07
2018-02-19T00:46:47.271Z,13.57
2018-02-19T00:47:21.468Z,18.65
2018-02-19T00:47:55.383Z,14.52
2018-02-19T00:48:29.551Z,15.63
2018-02-19T00:49:03.463Z,17.17
2018-02-19T00:49:37.518Z,14.65
2018-02-19T00:50:11.382Z,15.32
2018-02-19T00:50:45.276Z,16.95
2018-02-19T00:51:19.171Z,18.55
2018-02-19T00:51:53.071Z,19.98
2018-02-19T00:52:27.099Z,16.55
2018-02-19T00:53:00.988Z,23.12
2018-02-19T00:53:34.859Z,20.12
2018-02-19T00:54:08.934Z,16.85
2018-02-19T00:54:43.117Z,15.40
2018-02-19T00:55:17.054Z,16.20
2018-02-19T00:55:51.317Z,15.88
2018-02-19T00:56:25.310Z,16.33
2018-02-19T00:56:59.165Z,21.30
2018-02-19T00:57:33.041Z,16.55
2018-02-19T00:58:07.162Z,13.80
2018-02-19T00:58:41.138Z,12.85
2018-02-19T00:59:15.300Z,14.68
2018-02-19T00:59:49.152Z,17.77
2018-02-19T01:00:23.089Z,15.93
2018-02-19T01:00:57.007Z,15.63
2018-02-19T01:01:30.985Z,16.52
2018-02-19T01:02:04.850Z,16.42
2018-02-19T01:02:38.724Z,18.60
2018-02-19T01:03:12.693Z,17.73
2018-02-19T01:03:46.605Z,14.32
2018-02-19T01:04:20.668Z,15.50
2018-02-19T01:04:54.576Z,17.70
2018-02-19T01:05:28.450Z,14.15
2018-02-19T01:06:02.350Z,17.23
2018-02-19T01:06:36.381Z,15.57
2018-02-19T01:07:10.275Z,15.63
2018-02-19T01:07:44.305Z,20.92
2018-02-19T01:08:18.343Z,13.98
2018-02-19T01:08:52.241Z,15.80
2018-02-19T01:09:26.160Z,17.02
2018-02-19T01:10:00.033Z,17.17
2018-02-19T01:10:33.894Z,15.73
2018-02-19T01:11:07.761Z,11.57
2018-02-19T01:11:41.638Z,14.90
2018-02-19T01:12:15.948Z,16.40
2018-02-19T01:12:49.849Z,18.25
2018-02-19T01:13:23.843Z,15.15
2018-02-19T01:13:57.707Z,17.05
2018-02-19T01:14:31.673Z,17.05
2018-02-19T01:15:05.773Z,14.57
2018-02-19T01:15:39.629Z,15.20
2018-02-19T01:16:13.490Z,16.67
2018-02-19T01:16:47.365Z,14.25
2018-02-19T01:17:21.248Z,17.70
2018-02-19T01:17:55.131Z,16.67
2018-02-19T01:18:29.298Z,15.60
2018-02-19T01:19:03.167Z,18.33
2018-02-19T01:19:37.188Z,13.62
2018-02-19T01:20:11.057Z,16.02
2018-02-19T01:20:44.990Z,15.88
2018-02-19T01:21:18.887Z,14.00
2018-02-19T01:21:52.740Z,19.65
2018-02-19T01:22:26.659Z,13.90
2018-02-19T01:23:00.614Z,15.85
2018-02-19T01:23:34.509Z,13.93
2018-02-19T01:24:08.374Z,20.33
2018-02-19T01:24:42.473Z,14.05
2018-02-19T01:25:16.410Z,12.25
2018-02-19T01:25:50.309Z,18.48
2018-02-19T01:26:24.182Z,16.70
2018-02-19T01:26:58.165Z,16.83
2018-02-19T01:27:32.033Z,18.05
2018-02-19T01:28:05.924Z,14.35
2018-02-19T01:28:39.785Z,16.73
2018-02-19T01:29:14.028Z,17.65
2018-02-19T01:29:47.893Z,17.25
2018-02-19T01:30:21.810Z,14.80
2018-02-19T01:30:56.006Z,18.58
2018-02-19T01:31:30.011Z,19.27
2018-02-19T01:32:04.189Z,14.43
2018-02-19T01:32:38.228Z,19.30
2018-02-19T01:33:12.121Z,19.10
2018-02-19T01:33:46.005Z,19.90
2018-02-19T01:34:19.988Z,21.98
2018-02-19T01:34:53.902Z,15.50
2018-02-19T01:35:27.799Z,17.27
2018-02-19T01:36:01.676Z,13.93
2018-02-19T01:36:35.577Z,16.62
2018-02-19T01:37:09.460Z,17.55
2018-02-19T01:37:43.365Z,17.48
2018-02-19T01:38:17.364Z,17.92
2018-02-19T01:38:51.240Z,17.70
2018-02-19T01:39:25.335Z,18.30
2018-02-19T01:39:59.305Z,18.12
2018-02-19T01:40:33.206Z,16.80
2018-02-19T01:41:07.065Z,16.62
2018-02-19T01:41:40.929Z,15.57
2018-02-19T01:42:14.868Z,19.10
2018-02-19T01:42:48.819Z,17.87
2018-02-19T01:43:22.715Z,15.93
2018-02-19T01:43:56.698Z,13.02
2018-02-19T01:44:30.627Z,13.77
2018-02-19T01:45:04.570Z,17.08
2018-02-19T01:45:38.420Z,14.60
2018-02-19T01:46:12.316Z,18.55
2018-02-19T01:46:46.185Z,16.12
2018-02-19T01:47:20.217Z,14.18
2018-02-19T01:47:54.082Z,18.62
2018-02-19T01:48:28.027Z,21.98
2018-02-19T01:49:01.916Z,15.00
2018-02-19T01:49:35.838Z,13.38
2018-02-19T01:50:15.713Z,13.50
2018-02-19T01:50:49.648Z,16.67
2018-02-19T01:51:23.585Z,15.15
2018-02-19T01:51:57.683Z,17.48
2018-02-19T01:52:31.553Z,16.37
2018-02-19T01:53:05.514Z,14.35
2018-02-19T01:53:39.365Z,15.90
2018-02-19T01:54:13.381Z,14.77
2018-02-19T01:54:47.253Z,15.80
2018-02-19T01:55:21.200Z,14.35
2018-02-19T01:55:55.175Z,16.20
2018-02-19T01:56:29.092Z,14.87
2018-02-19T01:57:02.997Z,14.95
2018-02-19T01:57:36.910Z,13.25
2018-02-19T01:58:10.789Z,13.90
2018-02-19T01:58:44.697Z,16.35
2018-02-19T01:59:18.595Z,16.60
2018-02-19T01:59:52.576Z,16.15
2018-02-19T02:00:26.473Z,18.25
2018-02-19T02:01:00.370Z,16.05
2018-02-19T02:01:34.311Z,16.73
2018-02-19T02:02:08.302Z,18.30
2018-02-19T02:02:42.195Z,16.33
2018-02-19T02:03:16.229Z,17.23
2018-02-19T02:03:50.340Z,14.32
2018-02-19T02:04:24.290Z,13.25
2018-02-19T02:04:58.170Z,14.57
2018-02-19T02:05:32.127Z,13.43
2018-02-19T02:06:06.001Z,14.07
2018-02-19T02:06:39.873Z,17.00
2018-02-19T02:07:13.749Z,18.02
2018-02-19T02:07:47.609Z,14.87
2018-02-19T02:08:21.488Z,14.85
2018-02-19T02:08:55.378Z,14.00
2018-02-19T02:09:29.296Z,15.20
2018-02-19T02:10:03.222Z,15.98
2018-02-19T02:10:37.164Z,19.98
2018-02-19T02:11:11.047Z,16.65
2018-02-19T02:11:44.922Z,16.92
2018-02-19T02:12:18.781Z,16.08
2018-02-19T02:12:52.866Z,13.05
2018-02-19T02:13:26.792Z,14.80
2018-02-19T02:14:00.642Z,15.48
2018-02-19T02:14:34.643Z,15.15
2018-02-19T02:15:08.596Z,18.90
2018-02-19T02:15:42.621Z,13.98
2018-02-19T02:16:16.622Z,15.27
2018-02-19T02:16:50.484Z,15.45
2018-02-19T02:17:24.836Z,15.80
2018-02-19T02:17:58.731Z,16.30
2018-02-19T02:18:32.592Z,16.50
2018-02-19T02:19:06.432Z,13.98
2018-02-19T02:19:40.337Z,15.73
2018-02-19T02:20:14.441Z,14.38
2018-02-19T02:20:48.347Z,13.25
2018-02-19T02:21:22.236Z,19.75
2018-02-19T02:21:56.167Z,14.90
2018-02-19T02:22:30.078Z,15.23
2018-02-19T02:23:03.932Z,17.02
2018-02-19T02:23:37.799Z,14.48
2018-02-19T02:24:11.723Z,15.85
2018-02-19T02:24:45.608Z,16.08
2018-02-19T02:25:19.679Z,15.20
2018-02-19T02:25:53.628Z,15.63
2018-02-19T02:26:27.513Z,17.75
2018-02-19T02:27:01.399Z,16.55
2018-02-19T02:27:35.281Z,20.05
2018-02-19T02:28:09.185Z,14.98
2018-02-19T02:28:43.079Z,19.83
2018-02-19T02:29:17.066Z,12.52
2018-02-19T02:29:50.960Z,17.77
2018-02-19T02:30:24.842Z,18.87
2018-02-19T02:30:59.071Z,16.02
2018-02-19T02:31:32.967Z,14.77
2018-02-19T02:32:06.823Z,16.67
2018-02-19T02:32:40.935Z,14.00
2018-02-19T02:33:14.804Z,16.02
2018-02-19T02:33:48.733Z,13.88
2018-02-19T02:34:22.922Z,13.98
2018-02-19T02:34:56.795Z,16.87
2018-02-19T02:35:30.732Z,17.33
2018-02-19T02:36:04.918Z,14.57
2018-02-19T02:36:38.958Z,16.12
2018-02-19T02:37:13.551Z,16.90
2018-02-19T02:37:47.443Z,17.08
2018-02-19T02:38:21.323Z,17.83
2018-02-19T02:38:55.169Z,13.98
2018-02-19T02:39:29.041Z,20.65
2018-02-19T02:40:02.919Z,14.05
2018-02-19T02:40:36.814Z,13.60
2018-02-19T02:41:10.710Z,16.37
2018-02-19T02:41:44.796Z,16.67
2018-02-19T02:42:18.690Z,15.90
2018-02-19T02:42:52.590Z,15.95
2018-02-19T02:43:26.492Z,17.90
2018-02-19T02:44:00.373Z,19.58
2018-02-19T02:44:34.319Z,16.42
2018-02-19T02:45:08.178Z,16.15
2018-02-19T02:45:42.036Z,14.65
2018-02-19T02:46:15.954Z,18.77
2018-02-19T02:46:49.989Z,18.48
2018-02-19T02:47:24.086Z,13.90
2018-02-19T02:47:57.978Z,19.27
2018-02-19T02:48:31.867Z,17.58
2018-02-19T02:49:05.839Z,17.65
2018-02-19T02:49:39.711Z,15.60
2018-02-19T02:50:13.600Z,15.75
2018-02-19T02:50:47.458Z,14.05
2018-02-19T02:51:21.519Z,18.30
2018-02-19T02:51:55.366Z,19.75
2018-02-19T02:52:29.234Z,18.27
2018-02-19T02:53:03.101Z,17.23
2018-02-19T02:53:37.016Z,16.45
2018-02-19T02:54:10.925Z,12.68
2018-02-19T02:54:44.950Z,19.17
2018-02-19T02:55:18.893Z,17.85
2018-02-19T02:55:52.751Z,16.67
2018-02-19T02:56:26.647Z,15.60
2018-02-19T02:57:00.585Z,15.75
2018-02-19T02:57:34.445Z,15.45
2018-02-19T02:58:08.349Z,14.02
2018-02-19T02:58:42.206Z,19.10
2018-02-19T02:59:16.114Z,13.62
2018-02-19T02:59:50.015Z,14.95
2018-02-19T03:00:23.890Z,17.40
2018-02-19T03:00:57.884Z,18.02
2018-02-19T03:01:31.781Z,15.38
2018-02-19T03:02:05.819Z,18.30
2018-02-19T03:02:39.676Z,17.30
2018-02-19T03:03:13.730Z,15.02
2018-02-19T03:03:47.611Z,16.25
2018-02-19T03:04:21.643Z,16.70
2018-02-19T03:04:55.561Z,18.48
2018-02-19T03:05:29.496Z,16.35
2018-02-19T03:06:03.401Z,16.73
2018-02-19T03:06:37.386Z,19.17
2018-02-19T03:07:11.437Z,14.68
2018-02-19T03:07:45.417Z,16.25
2018-02-19T03:08:19.415Z,14.90
2018-02-19T03:08:53.269Z,18.58
2018-02-19T03:09:27.267Z,18.67
2018-02-19T03:10:01.350Z,16.83
2018-02-19T03:10:35.233Z,20.60
2018-02-19T03:11:09.101Z,17.90
2018-02-19T03:11:43.001Z,20.05
2018-02-19T03:12:16.880Z,14.35
2018-02-19T03:12:50.804Z,19.77
2018-02-19T03:13:24.660Z,15.15
2018-02-19T03:13:58.540Z,18.67
2018-02-19T03:14:32.398Z,19.17
2018-02-19T03:15:06.569Z,18.02
2018-02-19T03:15:40.446Z,15.18
2018-02-19T03:16:14.345Z,20.62
2018-02-19T03:16:48.223Z,16.75
2018-02-19T03:17:22.160Z,16.40
2018-02-19T03:17:56.022Z,20.25
2018-02-19T03:18:29.944Z,16.90
2018-02-19T03:19:03.890Z,17.00
2018-02-19T03:19:37.952Z,17.50
2018-02-19T03:20:12.035Z,16.30
2018-02-19T03:20:45.905Z,18.65
2018-02-19T03:21:19.791Z,20.67
2018-02-19T03:21:53.824Z,19.37
2018-02-19T03:22:27.733Z,17.50
2018-02-19T03:23:01.674Z,17.80
2018-02-19T03:23:35.533Z,18.62
2018-02-19T03:24:09.512Z,18.25
2018-02-19T03:24:43.409Z,24.00
2018-02-19T03:25:17.456Z,19.83
2018-02-19T03:25:51.311Z,20.02
2018-02-19T03:26:25.386Z,19.30
2018-02-19T03:26:59.293Z,15.77
2018-02-19T03:27:33.215Z,21.05
2018-02-19T03:28:07.197Z,19.92
2018-02-19T03:28:41.277Z,16.52
2018-02-19T03:29:15.227Z,20.48
2018-02-19T03:29:49.091Z,22.35
2018-02-19T03:30:23.083Z,20.70
2018-02-19T03:30:56.947Z,19.25
2018-02-19T03:31:30.828Z,14.80
2018-02-19T03:32:04.761Z,18.48
2018-02-19T03:32:38.620Z,18.27
2018-02-19T03:33:12.489Z,17.65
2018-02-19T03:33:46.589Z,17.58
2018-02-19T03:34:20.635Z,18.10
2018-02-19T03:34:54.533Z,15.52
2018-02-19T03:35:28.429Z,16.85
2018-02-19T03:36:02.383Z,19.48
2018-02-19T03:36:36.355Z,21.00
2018-02-19T03:37:10.332Z,16.15
2018-02-19T03:37:44.212Z,19.37
2018-02-19T03:38:18.112Z,21.73
2018-02-19T03:38:51.987Z,18.65
2018-02-19T03:39:25.958Z,18.52
2018-02-19T03:39:59.823Z,19.90
2018-02-19T03:40:33.720Z,17.45
2018-02-19T03:41:07.594Z,18.35
2018-02-19T03:41:41.516Z,19.27
2018-02-19T03:42:15.465Z,20.95
2018-02-19T03:42:49.356Z,19.50
2018-02-19T03:43:23.422Z,17.75
2018-02-19T03:43:57.301Z,24.15
2018-02-19T03:44:31.514Z,17.87
2018-02-19T03:45:05.411Z,16.00
2018-02-19T03:45:39.383Z,18.00
2018-02-19T03:46:13.235Z,19.10
2018-02-19T03:46:47.182Z,22.40
2018-02-19T03:47:21.172Z,17.00
2018-02-19T03:47:55.220Z,18.25
2018-02-19T03:48:29.152Z,23.70
2018-02-19T03:49:03.089Z,18.25
2018-02-19T03:49:36.956Z,25.88
2018-02-19T03:50:10.850Z,17.05
2018-02-19T03:50:44.758Z,18.55
2018-02-19T03:51:18.675Z,17.37
2018-02-19T03:51:52.538Z,16.70
2018-02-19T03:52:26.549Z,19.90
2018-02-19T03:53:00.489Z,21.17
2018-02-19T03:53:34.567Z,21.48
2018-02-19T03:54:08.483Z,21.50
2018-02-19T03:54:42.376Z,19.65
2018-02-19T03:55:16.498Z,17.92
2018-02-19T03:55:50.493Z,18.25
2018-02-19T03:56:24.365Z,19.98
2018-02-19T03:56:58.305Z,23.52
2018-02-19T03:57:32.197Z,21.25
2018-02-19T03:58:06.196Z,18.85
2018-02-19T03:58:40.066Z,22.42
2018-02-19T03:59:13.946Z,23.00
2018-02-19T03:59:47.998Z,21.80
2018-02-19T04:00:21.875Z,19.52
2018-02-19T04:00:55.746Z,17.25
2018-02-19T04:01:29.663Z,19.20
2018-02-19T04:02:03.624Z,19.50
2018-02-19T04:02:37.656Z,21.75
2018-02-19T04:03:11.566Z,19.20
2018-02-19T04:03:45.533Z,23.20
2018-02-19T04:04:19.446Z,19.70
2018-02-19T04:04:53.388Z,19.25
2018-02-19T04:05:27.495Z,22.85
2018-02-19T04:06:01.597Z,19.85
2018-02-19T04:06:35.548Z,21.45
2018-02-19T04:07:09.455Z,21.12
2018-02-19T04:07:43.487Z,20.90
2018-02-19T04:08:17.386Z,16.52
2018-02-19T04:08:51.465Z,22.75
2018-02-19T04:09:25.314Z,18.25
2018-02-19T04:09:59.313Z,19.52
2018-02-19T04:10:33.174Z,21.90
2018-02-19T04:11:07.065Z,20.15
2018-02-19T04:11:41.008Z,17.27
2018-02-19T04:12:15.206Z,19.15
2018-02-19T04:12:49.202Z,19.02
2018-02-19T04:13:23.069Z,19.95
2018-02-19T04:13:56.963Z,20.65
2018-02-19T04:14:30.941Z,20.70
2018-02-19T04:15:04.834Z,18.77
2018-02-19T04:15:38.886Z,23.98
2018-02-19T04:16:12.791Z,20.60
2018-02-19T04:16:46.661Z,18.80
2018-02-19T04:17:20.514Z,19.50
2018-02-19T04:17:54.437Z,22.45
2018-02-19T04:18:28.403Z,22.85
2018-02-19T04:19:02.398Z,18.80
2018-02-19T04:19:36.297Z,16.77
2018-02-19T04:20:10.296Z,28.35
2018-02-19T04:20:44.193Z,25.37
2018-02-19T04:21:18.096Z,18.35
2018-02-19T04:21:52.299Z,21.35
2018-02-19T04:22:26.173Z,18.62
2018-02-19T04:23:00.076Z,21.65
2018-02-19T04:23:34.240Z,20.75
2018-02-19T04:24:08.113Z,18.80
2018-02-19T04:24:42.088Z,19.52
2018-02-19T04:25:16.085Z,24.65
2018-02-19T04:25:50.144Z,18.62
2018-02-19T04:26:24.023Z,22.80
2018-02-19T04:26:57.916Z,20.62
2018-02-19T04:27:31.795Z,24.12
2018-02-19T04:28:05.707Z,21.40
2018-02-19T04:28:39.814Z,18.35
2018-02-19T04:29:13.876Z,20.90
2018-02-19T04:29:47.953Z,17.95
2018-02-19T04:30:21.855Z,19.70
2018-02-19T04:30:55.814Z,19.05
2018-02-19T04:31:29.708Z,24.90
2018-02-19T04:32:03.727Z,19.83
2018-02-19T04:32:37.658Z,21.10
2018-02-19T04:33:11.587Z,18.10
2018-02-19T04:33:45.476Z,24.02
2018-02-19T04:34:19.385Z,19.75
2018-02-19T04:34:53.298Z,18.50
2018-02-19T04:35:27.201Z,15.88
2018-02-19T04:36:01.092Z,19.60
2018-02-19T04:36:34.954Z,18.23
2018-02-19T04:37:08.835Z,18.05
2018-02-19T04:37:42.837Z,21.77
2018-02-19T04:38:16.780Z,22.10
2018-02-19T04:38:50.669Z,21.25
2018-02-19T04:39:25.180Z,18.37
2018-02-19T04:39:59.459Z,20.42
2018-02-19T04:40:33.346Z,23.83
2018-02-19T04:41:07.272Z,19.33
2018-02-19T04:41:41.262Z,20.33
2018-02-19T04:42:15.122Z,22.60
2018-02-19T04:43:08.808Z,20.40
2018-02-19T04:43:42.731Z,23.00
2018-02-19T04:44:31.469Z,19.90
2018-02-19T04:45:21.278Z,19.42
2018-02-19T04:45:55.875Z,17.77
2018-02-19T04:46:45.176Z,20.73
2018-02-19T04:47:19.073Z,21.73
2018-02-19T04:47:53.026Z,21.90
2018-02-19T04:48:27.077Z,21.83
2018-02-19T04:49:01.045Z,21.95
2018-02-19T04:49:35.013Z,23.35
2018-02-19T04:50:09.084Z,21.37
2018-02-19T04:50:42.963Z,23.67
2018-02-19T04:51:16.819Z,21.58
2018-02-19T04:51:50.737Z,18.55
2018-02-19T04:52:24.652Z,28.02
2018-02-19T04:52:58.546Z,26.95
2018-02-19T04:53:32.433Z,21.98
2018-02-19T04:54:06.403Z,24.55
2018-02-19T04:54:40.285Z,21.62
2018-02-19T04:55:14.239Z,21.02
2018-02-19T04:55:48.358Z,20.10
2018-02-19T04:56:22.239Z,19.67
2018-02-19T04:56:56.349Z,19.37
2018-02-19T04:57:30.320Z,19.02
2018-02-19T04:58:04.448Z,19.95
2018-02-19T04:58:38.529Z,23.55
2018-02-19T04:59:12.622Z,22.05
2018-02-19T04:59:46.626Z,22.95
2018-02-19T05:00:20.509Z,21.05
2018-02-19T05:00:54.433Z,20.52
2018-02-19T05:01:28.392Z,20.05
2018-02-19T05:02:02.426Z,21.85
2018-02-19T05:02:36.414Z,23.92
2018-02-19T05:03:10.346Z,26.98
2018-02-19T05:03:44.294Z,26.58
2018-02-19T05:04:18.597Z,26.65
2018-02-19T05:04:52.640Z,23.05
2018-02-19T05:05:26.496Z,27.33
2018-02-19T05:06:00.405Z,22.90
2018-02-19T05:06:34.564Z,22.08
2018-02-19T05:07:08.457Z,20.20
2018-02-19T05:07:42.366Z,21.42
2018-02-19T05:08:16.273Z,21.35
2018-02-19T05:08:50.142Z,18.15
2018-02-19T05:09:24.081Z,20.80
2018-02-19T05:09:57.974Z,23.75
2018-02-19T05:10:31.881Z,23.02
2018-02-19T05:11:05.768Z,22.42
2018-02-19T05:11:39.659Z,22.10
2018-02-19T05:12:13.846Z,23.27
2018-02-19T05:12:47.979Z,21.20
2018-02-19T05:13:21.855Z,27.05
2018-02-19T05:13:55.749Z,23.27
2018-02-19T05:14:29.654Z,17.83
2018-02-19T05:15:03.637Z,21.52
2018-02-19T05:15:37.512Z,23.48
2018-02-19T05:16:11.405Z,23.83
2018-02-19T05:16:45.298Z,24.85
2018-02-19T05:17:19.295Z,18.58
2018-02-19T05:17:53.263Z,21.98
2018-02-19T05:18:27.132Z,19.83
2018-02-19T05:19:01.004Z,25.48
2018-02-19T05:19:34.925Z,23.33
2018-02-19T05:20:08.805Z,25.17
2018-02-19T05:20:42.664Z,19.80
2018-02-19T05:21:16.690Z,22.23
2018-02-19T05:21:50.561Z,19.80
2018-02-19T05:22:24.653Z,23.45
2018-02-19T05:22:59.008Z,20.55
2018-02-19T05:23:32.890Z,26.05
2018-02-19T05:24:06.753Z,22.73
2018-02-19T05:24:40.630Z,22.58
2018-02-19T05:25:14.675Z,23.27
2018-02-19T05:25:48.573Z,19.52
2018-02-19T05:26:22.459Z,27.27
2018-02-19T05:26:56.329Z,22.50
2018-02-19T05:27:30.212Z,23.27
2018-02-19T05:28:04.365Z,18.62
2018-02-19T05:28:38.224Z,22.70
2018-02-19T05:29:12.118Z,28.35
2018-02-19T05:29:46.018Z,26.62
2018-02-19T05:30:19.905Z,19.92
2018-02-19T05:30:53.878Z,24.05
2018-02-19T05:31:27.749Z,26.83
2018-02-19T05:32:01.658Z,23.15
2018-02-19T05:32:35.703Z,20.73
2018-02-19T05:33:09.742Z,21.15
2018-02-19T05:33:43.719Z,26.08
2018-02-19T05:34:17.664Z,21.55
2018-02-19T05:34:51.666Z,23.75
2018-02-19T05:35:25.591Z,29.58
2018-02-19T05:35:59.489Z,30.92
2018-02-19T05:36:33.361Z,30.10
2018-02-19T05:37:07.385Z,17.83
2018-02-19T05:37:41.350Z,24.00
2018-02-19T05:38:15.292Z,23.38
2018-02-19T05:38:49.353Z,26.73
2018-02-19T05:39:23.297Z,28.67
2018-02-19T05:39:57.230Z,24.40
2018-02-19T05:40:31.101Z,23.60
2018-02-19T05:41:04.980Z,25.27
2018-02-19T05:41:38.860Z,20.17
2018-02-19T05:42:12.737Z,25.12
2018-02-19T05:42:46.804Z,28.25
2018-02-19T05:43:20.929Z,27.98
2018-02-19T05:43:55.055Z,21.15
2018-02-19T05:44:29.014Z,26.23
2018-02-19T05:45:02.972Z,31.98
2018-02-19T05:45:36.885Z,29.60
2018-02-19T05:46:10.784Z,24.25
2018-02-19T05:46:44.706Z,21.10
2018-02-19T05:47:18.568Z,20.35
2018-02-19T05:47:52.509Z,27.52
2018-02-19T05:48:26.418Z,23.30
2018-02-19T05:49:00.293Z,21.05
2018-02-19T05:49:34.469Z,23.75
2018-02-19T05:50:08.433Z,27.52
2018-02-19T05:50:42.296Z,20.23
2018-02-19T05:51:16.203Z,19.35
2018-02-19T05:51:50.096Z,21.08
2018-02-19T05:52:24.047Z,19.48
2018-02-19T05:52:57.914Z,21.20
2018-02-19T05:53:31.905Z,23.60
2018-02-19T05:54:06.034Z,21.27
2018-02-19T05:54:39.915Z,21.95
2018-02-19T05:55:14.058Z,27.92
2018-02-19T05:55:47.948Z,24.20
2018-02-19T05:56:21.974Z,27.75
2018-02-19T05:56:55.895Z,29.40
2018-02-19T05:57:29.778Z,26.17
2018-02-19T05:58:03.663Z,24.25
2018-02-19T05:58:37.527Z,23.10
2018-02-19T05:59:11.475Z,22.98
2018-02-19T05:59:45.396Z,25.10
2018-02-19T06:00:19.330Z,25.05
2018-02-19T06:00:53.182Z,21.70
2018-02-19T06:01:27.570Z,22.70
2018-02-19T06:02:01.550Z,20.33
2018-02-19T06:02:35.422Z,20.75
2018-02-19T06:03:09.275Z,25.33
2018-02-19T06:03:43.199Z,25.48
2018-02-19T06:04:17.086Z,23.67
2018-02-19T06:04:51.182Z,23.65
2018-02-19T06:05:25.144Z,20.98
2018-02-19T06:05:59.391Z,25.37
2018-02-19T06:06:33.542Z,21.20
2018-02-19T06:07:07.502Z,23.48
2018-02-19T06:07:41.375Z,22.85
2018-02-19T06:08:15.266Z,26.33
2018-02-19T06:08:49.329Z,26.62
2018-02-19T06:09:23.341Z,24.45
2018-02-19T06:09:57.272Z,23.95
2018-02-19T06:10:31.222Z,21.27
2018-02-19T06:11:05.247Z,23.17
2018-02-19T06:11:39.245Z,20.45
2018-02-19T06:12:13.325Z,21.55
2018-02-19T06:12:47.312Z,25.05
2018-02-19T06:13:21.255Z,21.85
2018-02-19T06:13:55.140Z,24.77
2018-02-19T06:14:29.012Z,22.67
2018-02-19T06:15:02.972Z,26.33
2018-02-19T06:15:38.666Z,23.12
2018-02-19T06:16:12.662Z,25.08
2018-02-19T06:16:46.631Z,33.85
2018-02-19T06:17:20.694Z,33.97
2018-02-19T06:17:54.631Z,23.33
2018-02-19T06:18:28.544Z,26.25
2018-02-19T06:19:02.447Z,25.73
2018-02-19T06:19:36.312Z,22.85
2018-02-19T06:20:10.283Z,24.23
2018-02-19T06:20:44.222Z,24.60
2018-02-19T06:21:18.276Z,28.40
2018-02-19T06:21:52.179Z,22.17
2018-02-19T06:22:26.281Z,20.48
2018-02-19T06:23:00.214Z,23.92
2018-02-19T06:23:34.205Z,24.83
2018-02-19T06:24:08.126Z,21.70
2018-02-19T06:24:42.079Z,19.95
2018-02-19T06:25:16.128Z,27.50
2018-02-19T06:25:50.125Z,25.05
2018-02-19T06:26:24.229Z,25.67
2018-02-19T06:26:58.153Z,30.15
2018-02-19T06:27:32.049Z,25.25
2018-02-19T06:28:05.985Z,20.73
2018-02-19T06:28:39.948Z,25.20
2018-02-19T06:29:13.955Z,24.85
2018-02-19T06:29:47.982Z,26.02
2018-02-19T06:30:21.934Z,21.90
2018-02-19T06:30:55.874Z,25.20
2018-02-19T06:31:29.739Z,21.77
2018-02-19T06:32:03.722Z,23.75
2018-02-19T06:32:37.597Z,19.90
2018-02-19T06:33:11.721Z,30.10
2018-02-19T06:33:45.771Z,22.50
2018-02-19T06:34:19.707Z,23.98
2018-02-19T06:34:53.712Z,26.05
2018-02-19T06:35:30.427Z,21.15
2018-02-19T06:36:04.767Z,30.67
2018-02-19T06:36:38.733Z,23.15
2018-02-19T06:37:12.980Z,24.05
2018-02-19T06:37:46.908Z,25.12
2018-02-19T06:38:21.116Z,24.08
2018-02-19T06:38:55.107Z,25.62
2018-02-19T06:39:29.771Z,22.95
2018-02-19T06:40:03.700Z,22.75
2018-02-19T06:40:38.176Z,24.00
2018-02-19T06:41:12.194Z,25.08
2018-02-19T06:41:46.416Z,24.27
2018-02-19T06:42:20.276Z,26.90
2018-02-19T06:42:54.164Z,23.35
2018-02-19T06:43:28.063Z,30.15
2018-02-19T06:44:02.156Z,29.95
2018-02-19T06:44:36.201Z,27.20
2018-02-19T06:45:10.087Z,21.65
2018-02-19T06:45:44.045Z,23.73
2018-02-19T06:46:17.991Z,25.20
2018-02-19T06:46:51.915Z,27.60
2018-02-19T06:47:25.777Z,24.20
2018-02-19T06:47:59.657Z,25.25
2018-02-19T06:48:33.664Z,23.85
2018-02-19T06:49:07.549Z,21.40
2018-02-19T06:49:41.468Z,31.75
2018-02-19T06:50:15.344Z,26.05
2018-02-19T06:50:49.464Z,28.70
2018-02-19T06:51:23.493Z,32.40
2018-02-19T06:51:57.640Z,26.50
2018-02-19T06:52:31.639Z,25.88
2018-02-19T06:53:05.686Z,26.83
2018-02-19T06:53:39.751Z,23.92
2018-02-19T06:54:13.654Z,30.35
2018-02-19T06:54:47.773Z,23.55
2018-02-19T06:55:21.689Z,27.00
2018-02-19T06:55:55.641Z,26.35
2018-02-19T06:56:29.660Z,29.23
2018-02-19T06:57:03.591Z,23.25
2018-02-19T06:57:37.485Z,27.10
2018-02-19T06:58:11.373Z,29.30
2018-02-19T06:58:45.543Z,25.65
2018-02-19T06:59:19.491Z,26.87
2018-02-19T06:59:54.430Z,28.85
2018-02-19T07:00:28.642Z,30.75
2018-02-19T07:01:02.534Z,30.62
2018-02-19T07:01:36.747Z,30.90
2018-02-19T07:02:10.673Z,25.17
2018-02-19T07:02:44.554Z,27.23
2018-02-19T07:03:18.612Z,30.75
2018-02-19T07:03:52.506Z,23.50
2018-02-19T07:04:26.502Z,27.08
2018-02-19T07:05:00.719Z,22.55
2018-02-19T07:05:34.814Z,23.90
2018-02-19T07:06:08.693Z,26.15
2018-02-19T07:06:42.729Z,30.20
2018-02-19T07:07:16.701Z,29.45
2018-02-19T07:07:50.710Z,26.75
2018-02-19T07:08:25.005Z,31.98
2018-02-19T07:08:58.914Z,27.23
2018-02-19T07:09:32.777Z,26.60
2018-02-19T07:10:06.702Z,25.92
2018-02-19T07:10:40.597Z,24.00
2018-02-19T07:11:14.490Z,29.67
2018-02-19T07:11:48.390Z,28.65
2018-02-19T07:12:22.266Z,27.37
2018-02-19T07:12:56.165Z,29.75
2018-02-19T07:13:30.135Z,27.23
2018-02-19T07:14:04.304Z,28.62
2018-02-19T07:14:38.276Z,24.63
2018-02-19T07:15:12.367Z,21.15
2018-02-19T07:15:46.258Z,26.77
2018-02-19T07:16:20.209Z,31.58
2018-02-19T07:16:54.130Z,28.67
2018-02-19T07:17:28.083Z,41.37
2018-02-19T07:18:02.220Z,26.90
2018-02-19T07:18:36.290Z,28.35